Time;durP1;ratioP1;P1;durP2;ratioP2;P2;SDS_P1;SDS_P2;PMS_P1;PMS_P2;Temp;Humidity;BMP_temperature;BMP_pressure;BME280_temperature;BME280_humidity;BME280_pressure;Samples;Min_cycle;Max_cycle;Signal;HPM_P1;HPM_P2
2022/08/14 09:19:31;;;;;;;1.20;1.10;;;;;;;;;;10338055;28;20044;-84
2022/08/14 09:24:38;;;;;;;1.23;0.80;;;;;;;;;;10473097;28;20041;-84
2022/08/14 09:29:46;;;;;;;0.85;0.82;;;;;;;;;;10490357;28;20248;-83
2022/08/14 09:35:09;;;;;;;0.75;0.75;;;;;;;;;;10479520;28;20036;-83
2022/08/14 09:45:47;;;;;;;0.90;0.75;;;;;;;;;;10470857;28;20289;-83
2022/08/14 09:50:57;;;;;;;0.95;0.85;;;;;;;;;;10483659;28;20045;-83
2022/08/14 09:56:03;;;;;;;0.77;0.77;;;;;;;;;;10487598;28;20071;-83
2022/08/14 10:01:14;;;;;;;0.90;0.90;;;;;;;;;;10487010;28;20461;-83
2022/08/14 10:06:24;;;;;;;1.17;1.08;;;;;;;;;;10478592;28;20467;-83
2022/08/14 10:11:37;;;;;;;1.40;1.30;;;;;;;;;;10470649;28;20528;-83
2022/08/14 10:16:43;;;;;;;1.05;1.02;;;;;;;;;;10477855;28;20067;-82
2022/08/14 10:22:00;;;;;;;1.50;1.40;;;;;;;;;;10476032;28;20094;-83
2022/08/14 10:27:05;;;;;;;1.63;1.52;;;;;;;;;;10482786;28;20055;-83
2022/08/14 10:32:10;;;;;;;1.10;1.00;;;;;;;;;;10476267;28;20492;-84
2022/08/14 10:37:17;;;;;;;0.90;0.90;;;;;;;;;;10477199;28;20110;-83
2022/08/14 10:42:21;;;;;;;1.35;1.05;;;;;;;;;;10483446;28;20072;-83
2022/08/14 10:47:36;;;;;;;2.00;0.70;;;;;;;;;;10482539;28;20464;-83
2022/08/14 10:52:45;;;;;;;0.80;0.60;;;;;;;;;;10476706;28;20517;-83
2022/08/14 10:57:51;;;;;;;0.80;0.80;;;;;;;;;;10425410;28;20085;-83
2022/08/14 11:03:14;;;;;;;1.00;0.80;;;;;;;;;;10361963;28;20034;-82
2022/08/14 11:08:34;;;;;;;0.60;0.60;;;;;;;;;;10337204;28;20045;-83
2022/08/14 11:13:56;;;;;;;0.80;0.80;;;;;;;;;;10353886;28;20046;-83
2022/08/14 11:19:06;;;;;;;0.60;0.60;;;;;;;;;;10350965;28;20045;-83
2022/08/14 11:24:21;;;;;;;0.50;0.50;;;;;;;;;;10337961;28;20042;-83
2022/08/14 11:29:27;;;;;;;0.60;0.60;;;;;;;;;;10349549;28;20045;-83
2022/08/14 11:34:36;;;;;;;0.63;0.40;;;;;;;;;;10351203;28;20113;-83
2022/08/14 11:39:47;;;;;;;0.73;0.70;;;;;;;;;;10344144;28;20111;-83
2022/08/14 11:44:54;;;;;;;0.55;0.55;;;;;;;;;;10367649;28;20552;-83
2022/08/14 11:50:11;;;;;;;0.60;0.60;;;;;;;;;;10371568;28;20034;-83
2022/08/14 11:55:19;;;;;;;0.32;0.32;;;;;;;;;;10355608;28;20125;-83
2022/08/14 12:00:28;;;;;;;0.80;0.40;;;;;;;;;;10363945;28;20686;-84
2022/08/14 12:05:38;;;;;;;0.38;0.38;;;;;;;;;;10347595;28;20625;-83
2022/08/14 12:10:45;;;;;;;0.60;0.60;;;;;;;;;;10353447;28;20046;-84
2022/08/14 12:15:59;;;;;;;0.57;0.57;;;;;;;;;;10351378;28;20754;-84
2022/08/14 12:21:13;;;;;;;;;;;;;;;;;;10392543;28;20037;-84
2022/08/14 12:26:19;;;;;;;0.30;0.30;;;;;;;;;;10411674;28;19948;-84
2022/08/14 12:31:23;;;;;;;0.70;0.40;;;;;;;;;;10405571;28;20132;-83
2022/08/14 12:36:29;;;;;;;0.47;0.47;;;;;;;;;;10410809;28;20030;-84
2022/08/14 12:41:35;;;;;;;0.43;0.43;;;;;;;;;;10381582;28;20137;-84
2022/08/14 12:46:40;;;;;;;0.82;0.40;;;;;;;;;;10382101;28;20030;-83
2022/08/14 12:51:56;;;;;;;0.60;0.60;;;;;;;;;;10379081;28;20563;-84
2022/08/14 12:57:07;;;;;;;0.93;0.82;;;;;;;;;;10385911;28;20041;-83
2022/08/14 13:02:23;;;;;;;0.88;0.88;;;;;;;;;;10370946;28;20046;-84
2022/08/14 13:07:28;;;;;;;0.70;0.70;;;;;;;;;;10377192;28;20129;-84
2022/08/14 13:12:34;;;;;;;0.63;0.63;;;;;;;;;;10373073;28;20049;-83
2022/08/14 13:17:45;;;;;;;1.02;0.68;;;;;;;;;;10361744;28;20089;-83
2022/08/14 13:22:50;;;;;;;0.85;0.85;;;;;;;;;;10366532;28;20053;-85
2022/08/14 13:27:57;;;;;;;1.45;0.77;;;;;;;;;;10353926;28;20168;-83
2022/08/14 13:33:05;;;;;;;0.82;0.70;;;;;;;;;;10352680;28;20046;-83
2022/08/14 13:38:09;;;;;;;0.60;0.60;;;;;;;;;;10357702;28;20053;-83
2022/08/14 13:43:17;;;;;;;;;;;;;;;;;;10348841;28;20066;-83
2022/08/14 13:48:21;;;;;;;1.08;0.95;;;;;;;;;;10371443;28;19927;-83
2022/08/14 13:53:28;;;;;;;0.95;0.88;;;;;;;;;;10356809;28;20140;-84
2022/08/14 13:58:36;;;;;;;0.93;0.90;;;;;;;;;;10361125;28;20046;-83
2022/08/14 14:03:43;;;;;;;0.50;0.50;;;;;;;;;;10346982;28;20053;-83
2022/08/14 14:08:48;;;;;;;0.63;0.63;;;;;;;;;;10343114;28;20046;-83
2022/08/14 14:13:57;;;;;;;0.63;0.63;;;;;;;;;;10362487;28;20081;-83
2022/08/14 14:19:01;;;;;;;0.68;0.60;;;;;;;;;;10358964;28;20121;-84
2022/08/14 14:24:10;;;;;;;0.85;0.50;;;;;;;;;;10361571;28;20192;-82
2022/08/14 14:29:17;;;;;;;0.95;0.70;;;;;;;;;;10369773;28;20049;-82
2022/08/14 14:34:25;;;;;;;0.50;0.50;;;;;;;;;;10369719;28;20098;-82
2022/08/14 14:39:29;;;;;;;1.40;1.27;;;;;;;;;;10362940;28;20412;-83
2022/08/14 14:44:39;;;;;;;;;;;;;;;;;;10349370;28;20069;-83
2022/08/14 14:49:43;;;;;;;1.02;0.95;;;;;;;;;;10390689;28;19922;-82
2022/08/14 14:54:49;;;;;;;0.60;0.57;;;;;;;;;;10367946;28;20050;-83
2022/08/14 14:59:57;;;;;;;0.60;0.60;;;;;;;;;;10378870;28;20045;-83
2022/08/14 15:05:06;;;;;;;0.80;0.80;;;;;;;;;;10385480;28;20048;-83
2022/08/14 15:10:12;;;;;;;0.40;0.40;;;;;;;;;;10366046;28;20069;-83
2022/08/14 15:15:19;;;;;;;0.60;0.60;;;;;;;;;;10377858;28;20117;-83
2022/08/14 15:20:22;;;;;;;0.90;0.80;;;;;;;;;;10392412;28;20061;-84
2022/08/14 15:25:30;;;;;;;0.95;0.88;;;;;;;;;;10378597;28;20060;-83
2022/08/14 15:30:35;;;;;;;0.80;0.60;;;;;;;;;;10383066;28;20469;-83
2022/08/14 15:35:39;;;;;;;0.57;0.50;;;;;;;;;;10384602;28;20046;-84
2022/08/14 15:40:43;;;;;;;0.55;0.55;;;;;;;;;;10381314;28;20054;-83
2022/08/14 15:45:47;;;;;;;0.38;0.38;;;;;;;;;;10377039;28;20042;-83
2022/08/14 15:50:52;;;;;;;0.82;0.65;;;;;;;;;;10397243;28;20053;-83
2022/08/14 15:55:57;;;;;;;0.30;0.30;;;;;;;;;;10378927;28;20034;-84
2022/08/14 16:01:21;;;;;;;0.77;0.65;;;;;;;;;;10392672;28;20033;-82
2022/08/14 16:06:41;;;;;;;0.70;0.70;;;;;;;;;;10389362;28;20046;-83
2022/08/14 16:11:46;;;;;;;0.82;0.73;;;;;;;;;;10365410;28;20042;-85
2022/08/14 16:16:54;;;;;;;0.60;0.60;;;;;;;;;;10373715;28;20064;-83
2022/08/14 16:22:02;;;;;;;0.50;0.50;;;;;;;;;;10372518;28;20061;-84
2022/08/14 16:27:09;;;;;;;0.35;0.35;;;;;;;;;;10373587;28;20080;-85
2022/08/14 16:32:20;;;;;;;0.82;0.63;;;;;;;;;;10396534;28;20460;-83
2022/08/14 16:37:25;;;;;;;0.40;0.40;;;;;;;;;;10360029;28;20072;-83
2022/08/14 16:42:31;;;;;;;0.50;0.50;;;;;;;;;;10398516;28;20045;-82
2022/08/14 16:47:38;;;;;;;0.50;0.40;;;;;;;;;;10376407;28;20101;-83
2022/08/14 16:52:43;;;;;;;0.57;0.57;;;;;;;;;;10419619;28;20060;-85
2022/08/14 16:57:49;;;;;;;0.50;0.50;;;;;;;;;;10401458;28;20049;-83
2022/08/14 17:03:02;;;;;;;0.65;0.50;;;;;;;;;;10380485;28;20326;-83
2022/08/14 17:08:14;;;;;;;0.60;0.55;;;;;;;;;;10421592;28;20382;-84
2022/08/14 17:13:23;;;;;;;0.88;0.52;;;;;;;;;;10448821;28;20048;-81
2022/08/14 17:18:40;;;;;;;0.75;0.57;;;;;;;;;;10395522;28;20172;-83
2022/08/14 17:23:44;;;;;;;0.45;0.45;;;;;;;;;;10388516;28;20575;-84
2022/08/14 17:29:07;;;;;;;0.52;0.40;;;;;;;;;;10395583;28;20045;-82
2022/08/14 17:34:12;;;;;;;0.47;0.47;;;;;;;;;;10396078;28;20099;-82
2022/08/14 17:39:18;;;;;;;0.50;0.50;;;;;;;;;;10396612;28;20041;-84
2022/08/14 17:44:27;;;;;;;1.00;0.40;;;;;;;;;;10413830;28;20068;-81
2022/08/14 17:49:36;;;;;;;0.70;0.60;;;;;;;;;;10397223;28;20125;-82
2022/08/14 17:54:42;;;;;;;0.40;0.40;;;;;;;;;;10419670;28;20099;-82
2022/08/14 17:59:48;;;;;;;0.50;0.50;;;;;;;;;;10411792;28;20140;-82
2022/08/14 18:04:53;;;;;;;0.70;0.65;;;;;;;;;;10424523;28;20476;-82
2022/08/14 18:10:00;;;;;;;0.80;0.57;;;;;;;;;;10435115;28;20037;-82
2022/08/14 18:15:06;;;;;;;0.50;0.50;;;;;;;;;;10386588;28;20042;-83
2022/08/14 18:20:11;;;;;;;0.70;0.65;;;;;;;;;;10429865;28;20139;-82
2022/08/14 18:25:15;;;;;;;1.10;0.80;;;;;;;;;;10376525;28;20076;-82
2022/08/14 18:30:21;;;;;;;0.80;0.70;;;;;;;;;;10384562;28;20049;-81
2022/08/14 18:35:42;;;;;;;0.95;0.90;;;;;;;;;;10384941;28;20108;-82
2022/08/14 18:40:49;;;;;;;1.08;0.95;;;;;;;;;;10385023;28;20449;-79
2022/08/14 18:46:04;;;;;;;0.85;0.80;;;;;;;;;;10385946;28;20053;-81
2022/08/14 18:51:13;;;;;;;0.90;0.70;;;;;;;;;;10387708;28;20077;-82
2022/08/14 18:56:17;;;;;;;1.23;0.90;;;;;;;;;;10408710;28;20049;-82
2022/08/14 19:01:25;;;;;;;1.50;1.02;;;;;;;;;;10401535;28;20125;-82
2022/08/14 19:06:47;;;;;;;1.05;0.90;;;;;;;;;;10400510;28;20049;-82
2022/08/14 19:11:55;;;;;;;1.08;0.90;;;;;;;;;;10411109;28;20065;-83
2022/08/14 19:17:04;;;;;;;1.10;1.00;;;;;;;;;;10405961;28;20053;-82
2022/08/14 19:22:16;;;;;;;1.17;1.08;;;;;;;;;;10406856;28;20067;-82
2022/08/14 19:27:24;;;;;;;0.82;0.82;;;;;;;;;;10412563;28;20042;-81
2022/08/14 19:32:38;;;;;;;0.82;0.80;;;;;;;;;;10399082;28;20044;-84
2022/08/14 19:37:49;;;;;;;1.08;0.82;;;;;;;;;;10413333;28;20045;-82
2022/08/14 19:42:52;;;;;;;0.90;0.90;;;;;;;;;;10437439;28;20041;-82
2022/08/14 19:47:57;;;;;;;0.95;0.95;;;;;;;;;;10438515;28;20037;-82
2022/08/14 19:53:08;;;;;;;1.10;1.00;;;;;;;;;;10446744;28;20081;-82
2022/08/14 19:58:12;;;;;;;1.10;1.00;;;;;;;;;;10408580;28;20045;-82
2022/08/14 20:03:16;;;;;;;0.82;0.80;;;;;;;;;;10422309;28;20051;-81
2022/08/14 20:08:23;;;;;;;1.30;1.00;;;;;;;;;;10425694;28;20509;-80
2022/08/14 20:13:28;;;;;;;1.50;1.27;;;;;;;;;;10406709;28;20052;-82
2022/08/14 20:18:34;;;;;;;1.50;1.10;;;;;;;;;;10432410;28;20045;-82
2022/08/14 20:24:18;;;;;;;0.98;0.85;;;;;;;;;;10392034;28;20045;-82
2022/08/14 20:29:28;;;;;;;0.60;0.60;;;;;;;;;;10370372;28;20057;-82
2022/08/14 20:34:38;;;;;;;1.05;0.88;;;;;;;;;;10360401;28;20074;-82
2022/08/14 20:39:46;;;;;;;0.98;0.88;;;;;;;;;;10361693;28;20046;-82
2022/08/14 20:50:15;;;;;;;0.90;0.90;;;;;;;;;;10399900;28;20056;-81
2022/08/14 20:55:31;;;;;;;1.23;1.10;;;;;;;;;;10422538;28;20140;-82
2022/08/14 21:00:37;;;;;;;1.20;1.10;;;;;;;;;;10410051;28;20040;-81
2022/08/14 21:05:45;;;;;;;1.30;1.20;;;;;;;;;;10387213;28;20546;-82
2022/08/14 21:10:50;;;;;;;0.95;0.85;;;;;;;;;;10399476;28;20050;-82
2022/08/14 21:15:54;;;;;;;1.00;0.87;;;;;;;;;;10397776;28;20043;-82
2022/08/14 21:21:03;;;;;;;0.80;0.80;;;;;;;;;;10394129;28;20105;-80
2022/08/14 21:26:08;;;;;;;1.10;1.00;;;;;;;;;;10389682;28;20068;-81
2022/08/14 21:31:12;;;;;;;0.98;0.93;;;;;;;;;;10381262;28;20105;-82
2022/08/14 21:36:18;;;;;;;1.17;1.08;;;;;;;;;;10393913;28;20081;-81
2022/08/14 21:41:22;;;;;;;1.67;0.90;;;;;;;;;;10348686;28;20416;-81
2022/08/14 21:46:27;;;;;;;0.60;0.60;;;;;;;;;;10395392;28;20045;-81
2022/08/14 21:51:33;;;;;;;0.80;0.80;;;;;;;;;;10397976;28;20073;-82
2022/08/14 21:56:40;;;;;;;0.80;0.80;;;;;;;;;;10425676;28;20520;-82
2022/08/14 22:06:08;;;;;;;0.70;0.70;;;;;;;;;;10655681;22;20233;-85
2022/08/14 22:11:11;;;;;;;1.90;1.10;;;;;;;;;;10595031;27;20051;-83
2022/08/14 22:16:15;;;;;;;1.13;0.93;;;;;;;;;;10595568;27;20032;-82
2022/08/14 22:21:20;;;;;;;1.00;0.90;;;;;;;;;;10606236;27;20261;-85
2022/08/14 22:26:23;;;;;;;0.68;0.68;;;;;;;;;;10594213;27;20047;-85
2022/08/14 22:31:27;;;;;;;1.08;0.98;;;;;;;;;;10596815;27;20055;-85
2022/08/14 22:36:50;;;;;;;1.10;1.00;;;;;;;;;;10586018;27;20545;-83
2022/08/14 22:41:54;;;;;;;0.60;0.60;;;;;;;;;;10594955;27;20047;-82
2022/08/14 22:46:59;;;;;;;0.70;0.70;;;;;;;;;;10595891;27;20088;-84
2022/08/14 22:52:06;;;;;;;1.25;1.10;;;;;;;;;;10595623;27;20031;-85
2022/08/14 22:57:10;;;;;;;0.88;0.88;;;;;;;;;;10596373;27;20052;-85
2022/08/14 23:02:21;;;;;;;1.05;0.73;;;;;;;;;;10593548;27;20035;-83
2022/08/14 23:07:26;;;;;;;1.58;1.05;;;;;;;;;;10595013;27;20047;-84
2022/08/14 23:12:31;;;;;;;1.20;0.98;;;;;;;;;;10594051;27;20070;-85
2022/08/14 23:17:39;;;;;;;1.55;1.00;;;;;;;;;;10566267;27;20050;-85
2022/08/14 23:22:45;;;;;;;1.67;1.00;;;;;;;;;;10565108;28;20501;-83
2022/08/14 23:27:49;;;;;;;1.33;1.00;;;;;;;;;;10564465;27;20048;-85
2022/08/14 23:32:54;;;;;;;0.98;0.80;;;;;;;;;;10564436;28;20058;-85
2022/08/14 23:38:01;;;;;;;0.80;0.75;;;;;;;;;;10564755;28;20043;-83
2022/08/14 23:43:08;;;;;;;0.70;0.70;;;;;;;;;;10595510;22;20048;-86
2022/08/14 23:48:12;;;;;;;1.00;0.90;;;;;;;;;;10400520;28;20049;-86
2022/08/14 23:53:20;;;;;;;1.02;0.80;;;;;;;;;;10391668;28;20048;-87
2022/08/14 23:58:24;;;;;;;1.15;1.00;;;;;;;;;;10391659;28;20936;-86
